Time;durP1;ratioP1;P1;durP2;ratioP2;P2;SDS_P1;SDS_P2;PMS_P1;PMS_P2;Temp;Humidity;BMP_temperature;BMP_pressure;BME280_temperature;BME280_humidity;BME280_pressure;Samples;Min_cycle;Max_cycle;Signal;HPM_P1;HPM_P2
2021/06/07 00:01:21;;;;;;;3.90;3.03;;;18.80;86.40;;;;;;5135558;27;20536;-78
2021/06/07 00:03:48;;;;;;;4.47;2.60;;;18.70;87.30;;;;;;5135577;27;20444;-78
2021/06/07 00:06:15;;;;;;;3.33;2.67;;;18.70;87.30;;;;;;5135294;27;20773;-78
2021/06/07 00:08:43;;;;;;;2.90;2.70;;;18.70;88.40;;;;;;5135209;27;21042;-77
2021/06/07 00:11:10;;;;;;;4.50;2.47;;;18.70;88.70;;;;;;5135497;27;20494;-77
2021/06/07 00:13:37;;;;;;;5.23;3.17;;;18.70;88.50;;;;;;5134922;27;20504;-77
2021/06/07 00:16:04;;;;;;;3.10;2.83;;;18.80;88.90;;;;;;5135248;27;20874;-77
2021/06/07 00:18:31;;;;;;;3.90;2.77;;;18.80;89.60;;;;;;5135037;27;20476;-77
2021/06/07 00:21:01;;;;;;;3.50;3.00;;;18.80;88.50;;;;;;5134961;27;21013;-78
2021/06/07 00:23:28;;;;;;;4.40;3.67;;;18.80;88.80;;;;;;5135118;27;20464;-78
2021/06/07 00:25:56;;;;;;;3.30;3.10;;;18.70;88.70;;;;;;5134788;27;21015;-77
2021/06/07 00:28:23;;;;;;;2.97;2.77;;;18.70;89.80;;;;;;5134710;27;20931;-77
2021/06/07 00:30:49;;;;;;;3.17;2.97;;;18.60;90.20;;;;;;5134956;27;20483;-77
2021/06/07 00:33:16;;;;;;;3.30;3.00;;;18.60;90.50;;;;;;5134706;27;20523;-77
2021/06/07 00:35:42;;;;;;;3.50;2.97;;;18.50;90.40;;;;;;5134671;27;20470;-77
2021/06/07 00:38:09;;;;;;;3.60;3.30;;;18.50;90.10;;;;;;5134871;27;20476;-78
2021/06/07 00:40:35;;;;;;;3.50;3.20;;;18.40;90.70;;;;;;5134708;27;20484;-77
2021/06/07 00:43:03;;;;;;;2.87;2.67;;;18.30;90.90;;;;;;5134683;27;20459;-77
2021/06/07 00:45:32;;;;;;;3.47;3.17;;;18.30;91.00;;;;;;5134691;27;20484;-77
2021/06/07 00:48:01;;;;;;;4.03;2.80;;;18.30;91.00;;;;;;5134529;27;20444;-77
2021/06/07 00:50:33;;;;;;;2.73;2.63;;;18.20;91.40;;;;;;5134436;27;20477;-77
2021/06/07 00:53:01;;;;;;;3.43;3.10;;;18.10;91.40;;;;;;5133884;27;20449;-77
2021/06/07 00:55:28;;;;;;;2.83;2.63;;;18.10;91.60;;;;;;5134568;27;20448;-77
2021/06/07 00:57:55;;;;;;;5.83;3.27;;;18.00;92.00;;;;;;5134413;27;20455;-77
2021/06/07 01:00:25;;;;;;;2.90;2.70;;;17.90;92.40;;;;;;5134174;27;20476;-77
2021/06/07 01:02:52;;;;;;;3.23;2.93;;;17.90;92.40;;;;;;5134107;27;20985;-77
2021/06/07 01:05:18;;;;;;;3.67;3.40;;;17.90;92.70;;;;;;5134401;27;20840;-78
2021/06/07 01:07:44;;;;;;;3.97;3.30;;;17.80;92.70;;;;;;5134322;27;20444;-77
2021/06/07 01:10:13;;;;;;;3.57;3.27;;;17.80;93.10;;;;;;5134227;27;20973;-77
2021/06/07 01:12:39;;;;;;;2.97;2.77;;;17.80;93.30;;;;;;5116779;27;20479;-77
2021/06/07 01:15:07;;;;;;;4.07;3.77;;;17.70;93.40;;;;;;5133946;27;20473;-77
2021/06/07 01:17:35;;;;;;;4.17;3.77;;;17.70;93.80;;;;;;5134141;27;20481;-78
2021/06/07 01:20:01;;;;;;;3.47;3.27;;;17.70;93.90;;;;;;5133972;27;20512;-77
2021/06/07 01:22:29;;;;;;;3.33;3.10;;;17.60;94.10;;;;;;5134128;27;20445;-77
2021/06/07 01:24:55;;;;;;;4.17;3.77;;;17.60;94.60;;;;;;5133926;27;20540;-77
2021/06/07 01:27:21;;;;;;;5.70;3.60;;;17.60;94.90;;;;;;5133787;27;20481;-77
2021/06/07 01:29:47;;;;;;;3.70;3.43;;;17.50;95.00;;;;;;5133767;27;20543;-78
2021/06/07 01:32:14;;;;;;;3.87;3.57;;;17.50;95.10;;;;;;5134062;27;20535;-78
2021/06/07 01:34:40;;;;;;;3.20;3.00;;;17.40;95.40;;;;;;5133853;28;20860;-78
2021/06/07 01:37:06;;;;;;;4.00;3.30;;;17.40;95.50;;;;;;5133933;28;20501;-77
2021/06/07 01:39:34;;;;;;;7.73;3.83;;;17.40;95.70;;;;;;5133682;28;20551;-77
2021/06/07 01:42:00;;;;;;;3.80;3.50;;;17.40;96.00;;;;;;5133837;28;20469;-77
2021/06/07 01:44:27;;;;;;;3.83;3.63;;;17.30;96.20;;;;;;5133612;28;20488;-77
2021/06/07 01:46:53;;;;;;;5.47;3.87;;;17.30;96.30;;;;;;5133848;28;20549;-78
2021/06/07 01:49:19;;;;;;;4.40;4.00;;;17.10;96.60;;;;;;5133528;28;20490;-77
2021/06/07 01:51:45;;;;;;;3.80;3.50;;;17.10;97.30;;;;;;5133777;28;20875;-77
2021/06/07 01:54:11;;;;;;;4.83;4.30;;;17.10;97.70;;;;;;5133682;27;20581;-77
2021/06/07 01:56:38;;;;;;;4.37;3.97;;;17.10;97.80;;;;;;5133665;28;20479;-77
2021/06/07 01:59:04;;;;;;;4.90;4.30;;;17.10;98.10;;;;;;5133278;28;20559;-77
2021/06/07 02:01:30;;;;;;;4.40;3.80;;;17.10;98.20;;;;;;5133564;28;20535;-77
2021/06/07 02:03:56;;;;;;;3.43;3.17;;;17.10;98.30;;;;;;5136299;27;20874;-77
2021/06/07 02:06:25;;;;;;;3.87;3.57;;;17.10;98.90;;;;;;5137630;27;20527;-77
2021/06/07 02:08:52;;;;;;;3.90;3.60;;;17.00;98.90;;;;;;5137643;27;20523;-77
2021/06/07 02:11:21;;;;;;;3.80;3.50;;;16.90;99.50;;;;;;5137506;27;20531;-77
2021/06/07 02:13:51;;;;;;;3.87;3.53;;;16.90;99.80;;;;;;5137370;27;20487;-77
2021/06/07 02:16:20;;;;;;;4.00;3.70;;;16.90;99.90;;;;;;5137701;27;20540;-78
2021/06/07 02:18:46;;;;;;;5.73;4.47;;;16.90;99.90;;;;;;5137597;27;20480;-78
2021/06/07 02:21:15;;;;;;;10.83;3.90;;;16.90;99.90;;;;;;5137427;27;20919;-78
2021/06/07 02:23:41;;;;;;;3.73;3.43;;;16.90;99.90;;;;;;5137328;27;20476;-77
2021/06/07 02:26:08;;;;;;;3.97;3.67;;;16.80;99.90;;;;;;5137013;27;20486;-78
2021/06/07 02:28:35;;;;;;;3.90;3.70;;;16.80;99.90;;;;;;5137269;27;20539;-77
2021/06/07 02:31:04;;;;;;;3.87;3.57;;;16.70;99.90;;;;;;5137255;27;20528;-77
2021/06/07 02:33:31;;;;;;;4.00;3.70;;;16.70;99.90;;;;;;5137212;27;21122;-77
2021/06/07 02:35:57;;;;;;;5.80;4.10;;;16.60;99.90;;;;;;5136993;27;20487;-77
2021/06/07 02:38:23;;;;;;;4.40;4.00;;;16.60;99.90;;;;;;5137084;27;20487;-77
2021/06/07 02:40:53;;;;;;;4.50;4.20;;;16.60;99.90;;;;;;5136756;27;20476;-77
2021/06/07 02:43:19;;;;;;;4.77;4.37;;;16.50;99.90;;;;;;5137230;27;20480;-77
2021/06/07 02:45:45;;;;;;;4.30;4.00;;;16.50;99.90;;;;;;5137047;27;20535;-77
2021/06/07 02:48:13;;;;;;;9.47;3.60;;;16.50;99.90;;;;;;5136986;27;20460;-77
2021/06/07 02:50:41;;;;;;;4.03;3.73;;;16.50;99.90;;;;;;5136745;27;20516;-76
2021/06/07 02:53:07;;;;;;;4.60;4.20;;;16.50;99.90;;;;;;5136718;27;20483;-77
2021/06/07 02:55:35;;;;;;;3.80;3.50;;;16.50;99.90;;;;;;5136819;27;20495;-77
2021/06/07 02:58:02;;;;;;;5.50;3.50;;;16.40;99.90;;;;;;5136820;27;20539;-77
2021/06/07 03:00:30;;;;;;;4.33;4.00;;;16.40;99.90;;;;;;5136609;27;20574;-77
2021/06/07 03:02:57;;;;;;;4.80;4.30;;;16.30;99.90;;;;;;5136581;27;20448;-77
2021/06/07 03:05:25;;;;;;;4.83;4.40;;;16.30;99.90;;;;;;5136544;27;20535;-76
2021/06/07 03:07:51;;;;;;;6.00;3.83;;;16.30;99.90;;;;;;5136286;27;21010;-77
2021/06/07 03:10:17;;;;;;;4.53;4.17;;;16.20;99.90;;;;;;5136543;27;20484;-77
2021/06/07 03:12:43;;;;;;;5.10;3.53;;;16.20;99.90;;;;;;5136336;27;20478;-78
2021/06/07 03:15:12;;;;;;;5.50;4.20;;;16.20;99.90;;;;;;5121194;27;20485;-77
2021/06/07 03:17:38;;;;;;;3.90;3.60;;;16.30;99.90;;;;;;5115867;28;20472;-77
2021/06/07 03:20:05;;;;;;;7.63;3.87;;;16.30;99.90;;;;;;5115460;28;20547;-77
2021/06/07 03:22:33;;;;;;;4.03;3.80;;;16.30;99.90;;;;;;5115602;27;20488;-77
2021/06/07 03:24:59;;;;;;;4.33;4.00;;;16.40;99.90;;;;;;5115702;28;20481;-77
2021/06/07 03:27:25;;;;;;;5.53;3.97;;;16.40;99.90;;;;;;5138925;27;20985;-77
2021/06/07 03:29:51;;;;;;;3.80;3.50;;;16.40;99.90;;;;;;5136157;27;21081;-77
2021/06/07 03:32:17;;;;;;;4.23;3.90;;;16.40;99.90;;;;;;5136067;27;20445;-77
2021/06/07 03:34:43;;;;;;;4.87;4.10;;;16.40;99.90;;;;;;5135961;27;20444;-78
2021/06/07 03:37:10;;;;;;;7.60;4.30;;;16.40;99.90;;;;;;5135757;27;20523;-77
2021/06/07 03:39:37;;;;;;;3.53;3.33;;;16.50;99.90;;;;;;5135934;27;20562;-77
2021/06/07 03:42:04;;;;;;;4.83;4.43;;;16.50;99.90;;;;;;5135856;27;20535;-77
2021/06/07 03:44:30;;;;;;;9.83;5.80;;;16.50;99.90;;;;;;5135848;27;20444;-78
2021/06/07 03:46:56;;;;;;;5.10;4.70;;;16.60;99.90;;;;;;5135655;27;20498;-78
2021/06/07 03:49:22;;;;;;;5.07;4.60;;;16.70;99.90;;;;;;5135607;27;20476;-78
2021/06/07 03:51:48;;;;;;;4.77;4.47;;;16.70;99.90;;;;;;5135545;27;20848;-77
2021/06/07 03:54:14;;;;;;;4.33;3.93;;;16.80;99.90;;;;;;5135596;27;20528;-78
2021/06/07 03:56:42;;;;;;;4.60;4.20;;;16.80;99.90;;;;;;5135533;27;20489;-78
2021/06/07 03:59:08;;;;;;;5.10;4.60;;;16.80;99.90;;;;;;5135437;27;20531;-78
2021/06/07 04:01:34;;;;;;;4.67;4.27;;;16.80;99.90;;;;;;5135398;27;20806;-78
2021/06/07 04:04:00;;;;;;;4.40;4.00;;;16.90;99.90;;;;;;5135287;27;20963;-78
2021/06/07 04:06:26;;;;;;;7.47;4.23;;;16.90;99.90;;;;;;5135142;27;21083;-77
2021/06/07 04:08:56;;;;;;;4.20;3.90;;;16.90;99.90;;;;;;5135398;27;20558;-77
2021/06/07 04:11:22;;;;;;;4.90;4.50;;;17.00;99.90;;;;;;5135390;27;20626;-77
2021/06/07 04:13:49;;;;;;;4.87;4.10;;;17.00;99.90;;;;;;5134986;27;20880;-77
2021/06/07 04:16:16;;;;;;;7.53;4.90;;;17.10;99.90;;;;;;5135037;27;20480;-78
2021/06/07 04:18:42;;;;;;;4.77;4.27;;;17.20;99.90;;;;;;5135029;27;21021;-78
2021/06/07 04:21:08;;;;;;;4.30;4.00;;;17.30;99.90;;;;;;5134855;27;20568;-78
2021/06/07 04:23:34;;;;;;;5.03;4.40;;;17.40;99.90;;;;;;5135129;27;20445;-78
2021/06/07 04:26:00;;;;;;;4.20;3.90;;;17.50;99.90;;;;;;5134750;27;20471;-77
2021/06/07 04:28:26;;;;;;;4.57;4.27;;;17.50;99.90;;;;;;5134797;27;20532;-77
2021/06/07 04:30:53;;;;;;;5.47;4.87;;;17.60;99.90;;;;;;5134945;27;20909;-77
2021/06/07 04:33:20;;;;;;;7.43;4.80;;;17.60;99.90;;;;;;5134611;27;20995;-78
2021/06/07 04:35:46;;;;;;;6.90;3.67;;;17.60;99.90;;;;;;5135018;27;20531;-78
2021/06/07 04:38:12;;;;;;;4.50;3.57;;;17.60;99.90;;;;;;5134690;27;20477;-78
2021/06/07 04:40:40;;;;;;;4.83;4.00;;;17.70;99.90;;;;;;5134690;27;20480;-78
2021/06/07 04:43:09;;;;;;;4.37;3.87;;;17.80;99.90;;;;;;5134614;27;20917;-77
2021/06/07 04:45:37;;;;;;;3.93;3.67;;;17.80;99.90;;;;;;5134533;27;20856;-78
2021/06/07 04:48:06;;;;;;;6.70;3.97;;;17.90;99.90;;;;;;5134485;27;21017;-78
2021/06/07 04:50:33;;;;;;;4.67;3.60;;;17.90;99.90;;;;;;5134731;27;20532;-78
2021/06/07 04:53:00;;;;;;;8.37;4.33;;;18.00;99.90;;;;;;5134567;27;20543;-78
2021/06/07 04:55:30;;;;;;;4.37;4.00;;;18.10;99.90;;;;;;5134474;27;20452;-77
2021/06/07 04:57:56;;;;;;;3.80;3.50;;;18.20;99.90;;;;;;5134293;27;20445;-78
2021/06/07 05:00:24;;;;;;;3.93;3.67;;;18.30;99.90;;;;;;5134182;27;21022;-78
2021/06/07 05:02:51;;;;;;;3.97;3.60;;;18.30;99.90;;;;;;5134402;27;20485;-79
2021/06/07 05:05:20;;;;;;;4.47;3.43;;;18.40;99.90;;;;;;5134436;27;20544;-78
2021/06/07 05:07:46;;;;;;;5.77;3.80;;;18.40;99.90;;;;;;5134268;27;20543;-78
2021/06/07 05:10:14;;;;;;;4.30;3.90;;;18.50;99.90;;;;;;5134163;27;20490;-78
2021/06/07 05:12:40;;;;;;;4.17;3.67;;;18.60;99.90;;;;;;5133944;27;20644;-79
2021/06/07 05:15:07;;;;;;;3.97;3.63;;;18.60;99.90;;;;;;5127737;27;20504;-88
2021/06/07 05:17:33;;;;;;;5.73;3.70;;;18.70;99.90;;;;;;5113708;28;20477;-77
2021/06/07 05:19:59;;;;;;;4.07;3.60;;;18.80;99.90;;;;;;5113581;28;20614;-77
2021/06/07 05:22:27;;;;;;;4.10;3.80;;;18.80;99.90;;;;;;5113362;28;20995;-77
2021/06/07 05:24:53;;;;;;;6.17;3.50;;;18.80;99.90;;;;;;5113471;28;20477;-77
2021/06/07 05:27:20;;;;;;;3.60;3.30;;;18.80;99.90;;;;;;5125652;27;20874;-77
2021/06/07 05:29:46;;;;;;;4.23;3.60;;;18.90;99.90;;;;;;5134036;27;20464;-77
2021/06/07 05:32:12;;;;;;;4.57;4.17;;;19.00;99.90;;;;;;5133957;27;20482;-77
2021/06/07 05:34:38;;;;;;;3.90;3.60;;;19.10;99.90;;;;;;5133970;27;20856;-77
2021/06/07 05:37:05;;;;;;;3.83;3.53;;;19.20;99.90;;;;;;5133663;27;20910;-78
2021/06/07 05:39:32;;;;;;;4.47;3.37;;;19.20;99.90;;;;;;5133390;27;20468;-77
2021/06/07 05:41:59;;;;;;;3.50;3.00;;;19.40;99.90;;;;;;5133666;28;20453;-78
2021/06/07 05:44:25;;;;;;;4.33;3.90;;;19.50;99.90;;;;;;5133932;27;20460;-79
2021/06/07 05:46:51;;;;;;;3.50;3.20;;;19.70;99.90;;;;;;5133896;28;20480;-78
2021/06/07 05:49:17;;;;;;;3.20;3.00;;;19.90;99.90;;;;;;5133576;28;20455;-77
2021/06/07 05:51:43;;;;;;;4.70;3.77;;;20.10;99.90;;;;;;5133757;28;20444;-77
2021/06/07 05:54:10;;;;;;;4.73;3.60;;;20.30;99.90;;;;;;5133661;28;20445;-77
2021/06/07 05:56:38;;;;;;;6.63;3.40;;;20.60;99.90;;;;;;5133535;28;20476;-77
2021/06/07 05:59:04;;;;;;;3.40;3.20;;;20.70;99.90;;;;;;5133654;28;20472;-77
2021/06/07 06:01:31;;;;;;;3.73;3.43;;;21.10;99.90;;;;;;5133665;28;20519;-77
2021/06/07 06:03:58;;;;;;;3.33;3.03;;;21.50;99.90;;;;;;5133530;28;20504;-77
2021/06/07 06:06:25;;;;;;;3.50;3.20;;;21.90;99.60;;;;;;5133599;28;20448;-77
2021/06/07 06:08:51;;;;;;;3.17;2.87;;;22.20;98.90;;;;;;5133392;28;20445;-77
2021/06/07 06:11:18;;;;;;;5.50;2.80;;;22.60;98.00;;;;;;5133850;28;21004;-77
2021/06/07 06:13:45;;;;;;;3.90;3.43;;;22.90;98.30;;;;;;5133119;28;21070;-78
2021/06/07 06:16:11;;;;;;;3.60;3.40;;;23.20;97.50;;;;;;5133616;28;20472;-78
2021/06/07 06:18:38;;;;;;;3.47;3.10;;;23.60;97.00;;;;;;5133417;28;20902;-78
2021/06/07 06:21:04;;;;;;;3.43;3.13;;;24.00;96.20;;;;;;5133280;28;20484;-78
2021/06/07 06:23:30;;;;;;;7.00;3.10;;;24.10;94.60;;;;;;5133255;28;20445;-77
2021/06/07 06:25:56;;;;;;;3.60;3.30;;;24.10;94.60;;;;;;5133447;28;20472;-79
2021/06/07 06:28:22;;;;;;;3.17;2.90;;;24.20;94.50;;;;;;5133313;27;20475;-80
2021/06/07 06:30:50;;;;;;;4.77;2.80;;;24.40;94.90;;;;;;5131455;27;20535;-80
2021/06/07 06:33:17;;;;;;;3.13;2.80;;;24.70;94.60;;;;;;5132901;28;20448;-80
2021/06/07 06:35:43;;;;;;;5.50;2.50;;;24.80;94.20;;;;;;5132779;28;20540;-81
2021/06/07 06:38:10;;;;;;;3.30;2.80;;;25.10;93.70;;;;;;5132744;27;20448;-80
2021/06/07 06:40:38;;;;;;;3.70;2.47;;;25.20;92.90;;;;;;5133349;27;20491;-79
2021/06/07 06:43:05;;;;;;;7.33;3.33;;;25.10;93.10;;;;;;5140498;27;20480;-80
2021/06/07 06:45:32;;;;;;;2.83;2.73;;;25.10;92.70;;;;;;5137062;27;20493;-79
2021/06/07 06:48:00;;;;;;;2.60;2.50;;;25.20;93.20;;;;;;5132446;27;20469;-79
2021/06/07 06:50:32;;;;;;;4.33;3.17;;;25.60;93.10;;;;;;5132441;27;20483;-79
2021/06/07 06:52:59;;;;;;;3.00;2.80;;;25.80;92.10;;;;;;5134960;27;20448;-82
2021/06/07 06:55:25;;;;;;;3.50;3.20;;;26.00;92.40;;;;;;5126845;27;20468;-89
2021/06/07 06:57:51;;;;;;;4.03;2.70;;;25.80;91.00;;;;;;5134151;27;20943;-89
2021/06/07 07:00:18;;;;;;;4.20;3.17;;;25.70;91.80;;;;;;5128246;27;21061;-88
2021/06/07 07:02:44;;;;;;;3.03;2.83;;;26.00;91.70;;;;;;5135838;27;20444;-89
2021/06/07 07:05:12;;;;;;;3.00;2.80;;;26.10;91.00;;;;;;5133169;27;20470;-90
2021/06/07 07:07:38;;;;;;;3.00;2.80;;;25.90;90.90;;;;;;5131821;27;20536;-91
2021/06/07 07:10:05;;;;;;;3.57;3.37;;;25.70;90.90;;;;;;5134353;27;20498;-91
2021/06/07 07:12:34;;;;;;;3.63;2.80;;;25.50;90.90;;;;;;5135509;27;20994;-91
2021/06/07 07:15:00;;;;;;;3.10;2.90;;;25.40;91.30;;;;;;5133749;27;20502;-91
2021/06/07 07:17:27;;;;;;;3.77;3.30;;;25.60;91.40;;;;;;5135677;27;20453;-91
2021/06/07 07:19:53;;;;;;;4.77;2.73;;;25.90;91.40;;;;;;5135670;27;20475;-91
2021/06/07 07:22:21;;;;;;;3.17;2.87;;;25.80;90.80;;;;;;5136188;27;20460;-90
2021/06/07 07:24:49;;;;;;;3.40;3.10;;;26.00;91.00;;;;;;5136060;27;20437;-88
2021/06/07 07:27:17;;;;;;;6.30;3.30;;;25.90;91.30;;;;;;5135514;27;20497;-87
2021/06/07 07:29:44;;;;;;;3.67;3.37;;;26.20;91.50;;;;;;5135633;27;20452;-88
2021/06/07 07:32:11;;;;;;;4.93;3.10;;;26.50;91.30;;;;;;5135356;27;20440;-87
2021/06/07 07:34:39;;;;;;;3.97;3.07;;;26.70;90.50;;;;;;5135121;27;20913;-88
2021/06/07 07:37:06;;;;;;;3.40;3.10;;;26.80;89.60;;;;;;5135188;27;20440;-86
2021/06/07 07:39:33;;;;;;;3.93;3.10;;;26.80;89.70;;;;;;5135228;27;20469;-87
2021/06/07 07:41:59;;;;;;;3.63;3.33;;;26.90;88.50;;;;;;5135046;27;20487;-88
2021/06/07 07:44:28;;;;;;;3.20;2.80;;;26.70;87.30;;;;;;5135072;27;20479;-88
2021/06/07 07:46:54;;;;;;;5.17;3.00;;;26.60;87.50;;;;;;5134588;27;20469;-87
2021/06/07 07:49:20;;;;;;;5.03;3.27;;;26.30;85.40;;;;;;5134308;27;20540;-88
2021/06/07 07:51:47;;;;;;;2.80;2.57;;;26.30;87.20;;;;;;5134786;27;20453;-87
2021/06/07 07:54:13;;;;;;;2.87;2.67;;;26.20;85.40;;;;;;5134401;27;20596;-86
2021/06/07 07:56:41;;;;;;;3.93;3.37;;;26.40;87.70;;;;;;5134845;27;20498;-87
2021/06/07 07:59:08;;;;;;;4.10;3.80;;;26.50;85.10;;;;;;5134447;27;20477;-87
2021/06/07 08:01:44;;;;;;;3.20;2.60;;;26.60;85.60;;;;;;5132502;27;20501;-87
2021/06/07 08:04:10;;;;;;;3.70;2.97;;;26.60;83.80;;;;;;5133745;27;20842;-87
2021/06/07 08:06:36;;;;;;;3.27;2.97;;;26.60;84.50;;;;;;5134650;27;20492;-87
2021/06/07 08:09:03;;;;;;;4.70;2.43;;;26.60;84.60;;;;;;5134559;27;20468;-86
2021/06/07 08:11:30;;;;;;;3.30;3.10;;;26.30;83.20;;;;;;5134726;27;20469;-87
2021/06/07 08:13:57;;;;;;;3.20;2.90;;;26.00;83.20;;;;;;5134039;27;20497;-87
2021/06/07 08:16:23;;;;;;;2.80;2.70;;;25.60;83.20;;;;;;5134197;27;20467;-87
2021/06/07 08:18:49;;;;;;;4.50;3.07;;;25.30;84.10;;;;;;5134300;27;20472;-87
2021/06/07 08:21:15;;;;;;;7.63;3.63;;;25.00;83.70;;;;;;5134127;27;20508;-87
2021/06/07 08:23:41;;;;;;;2.70;2.50;;;24.80;84.50;;;;;;5134398;27;20441;-88
2021/06/07 08:26:08;;;;;;;4.30;3.60;;;24.80;86.20;;;;;;5134164;27;20445;-86
2021/06/07 08:28:34;;;;;;;3.83;2.70;;;24.90;86.70;;;;;;5134340;27;20470;-87
2021/06/07 08:31:01;;;;;;;3.90;3.40;;;25.00;86.90;;;;;;5134652;27;20449;-87
2021/06/07 08:33:29;;;;;;;3.73;3.30;;;25.20;87.90;;;;;;5134040;27;20480;-89
2021/06/07 08:35:55;;;;;;;6.13;3.63;;;25.20;87.30;;;;;;5134285;27;20445;-89
2021/06/07 08:38:21;;;;;;;3.13;2.93;;;25.30;86.50;;;;;;5132239;27;20532;-90
2021/06/07 08:40:47;;;;;;;4.93;3.07;;;25.30;86.60;;;;;;5133831;27;20592;-88
2021/06/07 08:43:13;;;;;;;3.77;3.47;;;25.20;85.10;;;;;;5132976;27;20445;-88
2021/06/07 08:45:39;;;;;;;3.90;3.60;;;25.00;86.40;;;;;;5130147;27;20456;-88
2021/06/07 08:48:07;;;;;;;4.50;4.10;;;25.00;87.90;;;;;;5133460;27;20448;-89
2021/06/07 08:50:34;;;;;;;3.60;3.27;;;25.10;86.60;;;;;;5133599;27;20852;-89
2021/06/07 08:53:00;;;;;;;6.37;2.70;;;25.10;86.70;;;;;;5133703;27;20448;-89
2021/06/07 08:55:28;;;;;;;3.33;3.10;;;25.10;87.70;;;;;;5133740;27;21005;-88
2021/06/07 08:57:57;;;;;;;3.57;3.30;;;25.20;89.10;;;;;;5133550;27;20943;-88
2021/06/07 09:00:27;;;;;;;3.70;2.60;;;25.30;89.40;;;;;;5133517;27;20492;-89
2021/06/07 09:02:59;;;;;;;3.07;2.77;;;25.30;87.40;;;;;;5133696;27;20795;-89
2021/06/07 09:05:27;;;;;;;4.23;3.50;;;25.30;85.70;;;;;;5131366;27;20487;-88
2021/06/07 09:07:58;;;;;;;3.10;2.93;;;25.20;85.90;;;;;;5133143;27;20532;-89
2021/06/07 09:10:25;;;;;;;3.00;2.70;;;25.00;86.00;;;;;;5133227;27;20532;-90
2021/06/07 09:12:55;;;;;;;3.63;2.70;;;24.90;86.70;;;;;;5129620;27;20461;-89
2021/06/07 09:15:27;;;;;;;2.87;2.67;;;24.80;86.20;;;;;;5133514;27;20449;-90
2021/06/07 09:17:54;;;;;;;6.17;3.10;;;24.70;86.20;;;;;;5133486;27;20436;-90
2021/06/07 09:20:30;;;;;;;5.30;3.30;;;24.70;85.70;;;;;;5133397;27;20465;-89
2021/06/07 09:22:59;;;;;;;6.13;3.23;;;24.50;85.60;;;;;;5133497;27;20448;-89
2021/06/07 09:25:28;;;;;;;3.27;2.70;;;24.60;87.30;;;;;;5132580;27;20471;-88
2021/06/07 09:28:05;;;;;;;2.63;2.43;;;24.70;87.50;;;;;;5131685;27;21026;-93
2021/06/07 09:30:34;;;;;;;4.53;3.10;;;24.80;85.80;;;;;;5133195;27;20520;-92
2021/06/07 09:33:25;;;;;;;3.87;3.53;;;24.90;84.80;;;;;;5135467;27;20489;-94
2021/06/07 09:36:12;;;;;;;3.53;3.00;;;24.90;84.60;;;;;;5135190;27;20448;-92
2021/06/07 09:39:11;;;;;;;2.83;2.57;;;24.80;81.10;;;;;;5127512;28;20449;-96
2021/06/07 09:41:55;;;;;;;4.07;2.80;;;24.70;81.10;;;;;;5141912;27;20472;-93
2021/06/07 09:44:25;;;;;;;5.20;3.20;;;24.70;81.50;;;;;;5133583;28;20449;-95
2021/06/07 09:47:07;;;;;;;7.20;3.13;;;24.60;82.70;;;;;;5140581;28;20447;-96
2021/06/07 09:49:39;;;;;;;3.37;3.13;;;24.50;82.70;;;;;;5135355;28;20445;-92
2021/06/07 09:52:10;;;;;;;3.00;2.80;;;24.50;82.90;;;;;;5133184;28;20451;-93
2021/06/07 09:54:37;;;;;;;3.27;2.97;;;24.50;84.00;;;;;;5128658;28;20840;-94
2021/06/07 09:57:04;;;;;;;2.57;2.37;;;24.40;80.30;;;;;;5132552;27;20852;-92
2021/06/07 09:59:33;;;;;;;3.40;2.50;;;24.40;82.50;;;;;;5129508;27;20448;-95
2021/06/07 10:02:01;;;;;;;3.00;2.80;;;24.40;82.80;;;;;;5132603;28;21013;-91
2021/06/07 10:04:49;;;;;;;3.33;3.13;;;24.50;81.60;;;;;;5132610;28;20445;-91
2021/06/07 10:07:18;;;;;;;2.87;2.47;;;24.50;82.30;;;;;;5133103;28;20808;-91
2021/06/07 10:10:13;;;;;;;5.80;2.87;;;24.50;77.90;;;;;;5133432;28;20880;-91
2021/06/07 10:12:41;;;;;;;3.20;2.77;;;24.60;78.40;;;;;;5126439;28;20465;-91
2021/06/07 10:15:08;;;;;;;5.17;3.00;;;24.70;81.20;;;;;;5132848;28;20543;-91
2021/06/07 10:17:35;;;;;;;2.87;2.67;;;24.80;78.00;;;;;;5133307;27;20868;-92
2021/06/07 10:22:47;;;;;;;2.37;2.17;;;24.90;77.70;;;;;;5133266;28;20501;-93
2021/06/07 10:25:13;;;;;;;2.80;2.63;;;24.90;74.80;;;;;;5136315;27;20529;-94
2021/06/07 10:27:42;;;;;;;2.70;2.50;;;25.00;75.40;;;;;;5137809;27;20448;-94
2021/06/07 10:30:19;;;;;;;2.63;2.53;;;24.90;76.00;;;;;;5135500;27;20532;-94
2021/06/07 10:32:45;;;;;;;3.37;3.07;;;24.90;77.50;;;;;;5135182;27;20448;-94
2021/06/07 10:35:13;;;;;;;7.13;2.60;;;25.10;78.50;;;;;;5136793;27;20437;-94
2021/06/07 10:37:58;;;;;;;4.07;2.50;;;25.10;76.50;;;;;;5137429;27;20456;-95
2021/06/07 10:40:26;;;;;;;3.43;2.60;;;25.10;76.00;;;;;;5136045;27;20483;-91
2021/06/07 10:42:57;;;;;;;3.17;2.90;;;25.10;75.50;;;;;;5136637;27;20856;-92
2021/06/07 10:45:27;;;;;;;3.20;3.00;;;25.10;77.90;;;;;;5134211;27;20476;-94
2021/06/07 10:47:54;;;;;;;3.23;2.93;;;25.10;78.00;;;;;;5136893;27;20943;-93
2021/06/07 10:50:22;;;;;;;3.13;2.93;;;25.10;78.20;;;;;;5136892;27;20487;-90
2021/06/07 10:52:54;;;;;;;4.60;3.10;;;25.10;78.60;;;;;;5133877;27;20499;-89
2021/06/07 10:55:24;;;;;;;3.33;2.70;;;25.10;75.30;;;;;;5134391;27;20799;-88
2021/06/07 10:57:55;;;;;;;3.13;2.90;;;25.10;72.60;;;;;;5136936;27;20853;-88
2021/06/07 11:00:25;;;;;;;2.60;2.50;;;25.10;73.90;;;;;;5134629;27;20464;-89
2021/06/07 11:02:53;;;;;;;3.60;2.80;;;25.00;74.00;;;;;;5136638;27;20481;-89
2021/06/07 11:05:22;;;;;;;3.07;2.87;;;25.10;75.60;;;;;;5136507;27;20540;-91
2021/06/07 11:08:01;;;;;;;5.30;2.77;;;25.10;74.80;;;;;;5136475;27;20532;-91
2021/06/07 11:10:30;;;;;;;2.77;2.40;;;25.10;74.20;;;;;;5136630;27;20456;-91
2021/06/07 11:12:59;;;;;;;3.20;2.90;;;25.10;75.20;;;;;;5135996;27;20561;-91
2021/06/07 11:15:28;;;;;;;3.67;3.30;;;25.10;73.80;;;;;;5136239;27;20477;-90
2021/06/07 11:18:22;;;;;;;3.70;3.00;;;25.10;75.60;;;;;;5136275;27;21026;-91
2021/06/07 11:20:50;;;;;;;2.90;2.70;;;25.30;74.10;;;;;;5136535;27;20464;-91
2021/06/07 11:23:18;;;;;;;3.33;3.00;;;25.40;74.50;;;;;;5136295;27;20475;-90
2021/06/07 11:25:53;;;;;;;2.60;2.50;;;25.30;74.00;;;;;;5136508;27;20496;-90
2021/06/07 11:28:35;;;;;;;2.57;2.37;;;25.40;76.40;;;;;;5117273;28;20449;-87
2021/06/07 11:31:03;;;;;;;3.83;3.47;;;25.40;73.70;;;;;;5115536;28;20502;-89
2021/06/07 11:33:48;;;;;;;3.10;2.90;;;25.40;73.60;;;;;;5115409;28;20445;-90
2021/06/07 11:36:38;;;;;;;5.97;3.00;;;25.50;73.90;;;;;;5132155;27;20909;-91
2021/06/07 11:39:07;;;;;;;4.10;2.70;;;25.50;72.70;;;;;;5123820;27;20488;-91
2021/06/07 11:41:46;;;;;;;3.40;3.00;;;25.60;73.10;;;;;;5135263;27;20508;-90
2021/06/07 11:44:13;;;;;;;3.00;2.80;;;25.60;71.90;;;;;;5135694;27;20437;-90
2021/06/07 11:46:56;;;;;;;2.83;2.63;;;25.60;73.50;;;;;;5135650;27;20452;-90
2021/06/07 11:49:23;;;;;;;8.33;2.70;;;25.70;71.50;;;;;;5135712;27;20445;-90
2021/06/07 11:52:05;;;;;;;2.60;2.40;;;25.70;71.00;;;;;;5135260;27;20958;-90
2021/06/07 11:54:52;;;;;;;2.87;2.67;;;25.70;69.40;;;;;;5132625;27;20526;-89
2021/06/07 11:57:22;;;;;;;5.23;2.90;;;25.60;69.30;;;;;;5128026;27;20441;-88
2021/06/07 11:59:59;;;;;;;3.40;2.87;;;25.50;70.00;;;;;;5121788;27;20446;-89
2021/06/07 12:02:27;;;;;;;2.90;2.70;;;25.60;69.30;;;;;;5115964;27;20457;-90
2021/06/07 12:04:53;;;;;;;3.17;2.83;;;25.60;70.60;;;;;;5135189;27;20440;-89
2021/06/07 12:07:21;;;;;;;3.20;3.00;;;25.70;69.20;;;;;;5135128;27;20445;-92
2021/06/07 12:09:50;;;;;;;3.77;3.47;;;25.70;69.10;;;;;;5134970;27;20782;-93
2021/06/07 12:12:17;;;;;;;2.53;2.40;;;25.70;67.50;;;;;;5134775;27;20522;-94
2021/06/07 12:14:46;;;;;;;2.90;2.70;;;25.60;69.10;;;;;;5135295;27;20437;-92
2021/06/07 12:17:19;;;;;;;2.80;2.63;;;25.60;68.40;;;;;;5135141;27;20437;-92
2021/06/07 12:19:49;;;;;;;4.10;2.90;;;25.60;68.60;;;;;;5135031;27;20475;-92
2021/06/07 12:22:29;;;;;;;2.63;2.10;;;25.70;67.70;;;;;;5134796;27;20870;-92
2021/06/07 12:24:58;;;;;;;2.40;2.30;;;25.70;68.10;;;;;;5132970;27;20463;-92
2021/06/07 12:30:18;;;;;;;3.00;2.80;;;25.70;68.70;;;;;;5132181;27;20447;-92
2021/06/07 12:32:48;;;;;;;2.60;2.47;;;25.80;67.50;;;;;;5134850;27;20441;-92
2021/06/07 12:35:16;;;;;;;4.33;2.57;;;25.80;67.10;;;;;;5135272;27;20444;-91
2021/06/07 12:37:46;;;;;;;2.00;1.90;;;25.80;66.30;;;;;;5134883;27;20449;-92
2021/06/07 12:40:39;;;;;;;3.00;2.27;;;25.80;65.20;;;;;;5133224;27;20519;-92
2021/06/07 12:43:16;;;;;;;2.70;2.43;;;25.90;64.20;;;;;;5133106;27;20453;-91
2021/06/07 12:45:46;;;;;;;2.57;2.27;;;25.90;62.30;;;;;;5133113;27;20472;-91
2021/06/07 12:48:21;;;;;;;2.73;2.63;;;25.90;63.00;;;;;;5134434;27;20437;-91
2021/06/07 12:50:49;;;;;;;2.67;2.47;;;25.90;64.50;;;;;;5134244;27;20482;-92
2021/06/07 12:53:16;;;;;;;4.37;2.27;;;25.90;65.70;;;;;;5134622;27;20803;-90
2021/06/07 12:55:44;;;;;;;2.20;2.10;;;25.90;66.80;;;;;;5134679;27;20448;-90
2021/06/07 12:58:14;;;;;;;2.60;2.50;;;26.00;65.10;;;;;;5133767;27;20436;-90
2021/06/07 13:00:46;;;;;;;3.33;2.60;;;26.00;64.50;;;;;;5133776;27;20529;-90